Time;durP1;ratioP1;P1;durP2;ratioP2;P2;SDS_P1;SDS_P2;PMS_P1;PMS_P2;Temp;Humidity;BMP_temperature;BMP_pressure;BME280_temperature;BME280_humidity;BME280_pressure;Samples;Min_cycle;Max_cycle;Signal;HPM_P1;HPM_P2
2021/05/17 00:00:57;;;;;;;1.85;0.40;;;18.30;61.50;;;;;;5055638;28;20048;-66
2021/05/17 00:03:24;;;;;;;0.80;0.40;;;18.30;61.40;;;;;;5055312;28;20488;-65
2021/05/17 00:05:50;;;;;;;0.82;0.40;;;18.30;61.40;;;;;;5055890;28;20094;-65
2021/05/17 00:08:16;;;;;;;1.10;0.43;;;18.20;61.40;;;;;;5054471;28;20476;-66
2021/05/17 00:10:42;;;;;;;1.77;0.60;;;18.30;61.40;;;;;;5054218;28;20060;-65
2021/05/17 00:13:07;;;;;;;0.70;0.35;;;18.30;61.40;;;;;;5055405;28;20451;-65
2021/05/17 00:15:33;;;;;;;1.08;0.43;;;18.30;61.50;;;;;;5055416;28;20100;-66
2021/05/17 00:17:59;;;;;;;0.57;0.30;;;18.30;61.50;;;;;;5055347;28;20021;-66
2021/05/17 00:20:26;;;;;;;1.85;0.40;;;18.30;61.50;;;;;;5055550;28;20021;-66
2021/05/17 00:22:52;;;;;;;2.00;0.52;;;18.30;61.50;;;;;;5055316;28;20021;-65
2021/05/17 00:25:25;;;;;;;1.00;0.60;;;17.30;60.90;;;;;;5055448;28;20040;-66
2021/05/17 00:27:52;;;;;;;0.98;0.52;;;18.20;61.40;;;;;;5055455;28;20017;-65
2021/05/17 00:30:23;;;;;;;0.82;0.40;;;18.40;61.60;;;;;;5055070;28;20028;-66
2021/05/17 00:32:49;;;;;;;1.45;0.57;;;18.20;61.50;;;;;;5053804;28;20028;-65
2021/05/17 00:35:16;;;;;;;1.25;0.45;;;18.30;61.50;;;;;;5055284;28;20029;-66
2021/05/17 00:37:43;;;;;;;0.57;0.30;;;18.30;61.50;;;;;;5054916;28;20155;-66
2021/05/17 00:40:10;;;;;;;0.30;0.30;;;18.40;61.60;;;;;;5055239;28;20021;-65
2021/05/17 00:42:36;;;;;;;0.52;0.32;;;18.20;86.80;;;;;;5055123;28;20021;-64
2021/05/17 00:45:10;;;;;;;0.40;0.30;;;18.20;61.50;;;;;;5054875;28;20036;-64
2021/05/17 00:47:45;;;;;;;1.10;0.40;;;18.20;61.50;;;;;;5054744;28;20456;-65
2021/05/17 00:50:14;;;;;;;0.70;0.30;;;18.20;61.50;;;;;;5054911;28;20035;-65
2021/05/17 00:52:40;;;;;;;0.32;0.30;;;18.20;61.40;;;;;;5053447;28;20369;-66
2021/05/17 00:55:07;;;;;;;0.73;0.40;;;18.20;61.50;;;;;;5053473;28;20029;-66
2021/05/17 00:57:33;;;;;;;0.50;0.50;;;18.20;61.60;;;;;;5054589;28;20570;-65
2021/05/17 00:59:59;;;;;;;0.38;0.30;;;18.20;61.50;;;;;;5054618;28;20031;-66
2021/05/17 01:02:25;;;;;;;1.50;0.43;;;18.20;61.50;;;;;;5054758;28;20115;-65
2021/05/17 01:04:51;;;;;;;0.40;0.30;;;18.20;61.60;;;;;;5054319;28;20087;-65
2021/05/17 01:07:19;;;;;;;1.38;0.30;;;18.10;61.50;;;;;;5054760;28;20029;-65
2021/05/17 01:09:46;;;;;;;0.93;0.30;;;18.10;61.50;;;;;;5054003;28;20033;-65
2021/05/17 01:12:15;;;;;;;1.30;0.50;;;18.40;61.70;;;;;;5054320;28;20021;-65
2021/05/17 01:14:42;;;;;;;1.88;0.60;;;18.20;61.60;;;;;;5054427;28;20101;-65
2021/05/17 01:17:10;;;;;;;1.50;0.63;;;18.10;61.50;;;;;;5054291;28;20133;-66
2021/05/17 01:19:43;;;;;;;1.15;0.60;;;17.90;61.50;;;;;;5053018;28;20525;-66
2021/05/17 01:22:11;;;;;;;0.68;0.40;;;18.10;61.60;;;;;;5054542;28;20025;-66
2021/05/17 01:24:38;;;;;;;0.52;0.40;;;18.10;61.60;;;;;;5054203;28;20021;-65
2021/05/17 01:27:05;;;;;;;0.38;0.38;;;18.10;61.60;;;;;;5054354;28;20021;-65
2021/05/17 01:29:31;;;;;;;0.68;0.50;;;18.10;61.60;;;;;;5054055;28;20033;-66
2021/05/17 01:32:01;;;;;;;0.70;0.40;;;18.10;62.30;;;;;;5054261;28;20021;-66
2021/05/17 01:34:27;;;;;;;1.23;0.50;;;17.80;61.40;;;;;;5053953;28;20111;-66
2021/05/17 01:36:53;;;;;;;1.25;0.50;;;18.10;61.60;;;;;;5053010;28;20100;-65
2021/05/17 01:39:23;;;;;;;0.88;0.30;;;18.10;61.70;;;;;;5054135;28;20020;-65
2021/05/17 01:41:51;;;;;;;0.75;0.40;;;17.90;61.50;;;;;;5053926;28;20024;-64
2021/05/17 01:44:21;;;;;;;0.60;0.40;;;18.00;61.60;;;;;;5054084;28;20422;-65
2021/05/17 01:46:48;;;;;;;0.50;0.30;;;18.00;61.60;;;;;;5053767;28;20044;-66
2021/05/17 01:49:14;;;;;;;0.68;0.38;;;18.00;61.60;;;;;;5053667;28;20598;-65
2021/05/17 01:51:44;;;;;;;0.70;0.30;;;18.00;61.60;;;;;;5053987;28;20395;-65
2021/05/17 01:54:10;;;;;;;0.47;0.25;;;17.80;61.50;;;;;;5052534;28;20391;-65
2021/05/17 01:56:36;;;;;;;0.45;0.30;;;18.00;61.60;;;;;;5052424;28;20021;-65
2021/05/17 01:59:02;;;;;;;0.60;0.35;;;18.00;61.60;;;;;;5053586;28;20031;-66
2021/05/17 02:01:28;;;;;;;1.13;0.50;;;18.00;61.70;;;;;;5053827;28;20357;-66
2021/05/17 02:03:53;;;;;;;0.43;0.40;;;18.00;61.60;;;;;;5053129;28;20053;-65
2021/05/17 02:06:19;;;;;;;0.75;0.43;;;18.00;61.70;;;;;;5053460;28;20070;-65
2021/05/17 02:08:50;;;;;;;2.33;0.55;;;18.00;61.70;;;;;;5053375;28;20113;-66
2021/05/17 02:11:19;;;;;;;0.95;0.40;;;18.40;61.90;;;;;;5053680;28;20498;-64
2021/05/17 02:13:45;;;;;;;0.98;0.50;;;18.40;61.90;;;;;;5053548;28;20021;-65
2021/05/17 02:16:12;;;;;;;0.60;0.43;;;18.00;61.70;;;;;;5035421;28;20545;-65
2021/05/17 02:18:41;;;;;;;0.68;0.30;;;17.70;61.60;;;;;;5053191;28;20036;-65
2021/05/17 02:21:07;;;;;;;1.05;0.38;;;18.00;61.70;;;;;;5052958;28;20063;-66
2021/05/17 02:23:33;;;;;;;0.60;0.30;;;18.00;61.70;;;;;;5052772;28;20033;-64
2021/05/17 02:26:00;;;;;;;1.08;0.45;;;18.00;61.80;;;;;;5053358;28;20025;-65
2021/05/17 02:28:26;;;;;;;0.40;0.30;;;17.90;61.70;;;;;;5053051;28;20074;-64
2021/05/17 02:30:52;;;;;;;0.85;0.52;;;18.00;61.80;;;;;;5053238;28;20029;-64
2021/05/17 02:33:19;;;;;;;0.70;0.40;;;17.90;61.70;;;;;;5051572;28;20479;-64
2021/05/17 02:35:45;;;;;;;2.00;0.43;;;17.80;61.70;;;;;;5052852;28;20028;-65
2021/05/17 02:38:11;;;;;;;1.02;0.50;;;18.00;61.80;;;;;;5053072;28;20044;-64
2021/05/17 02:40:37;;;;;;;1.40;0.50;;;17.90;61.70;;;;;;5052757;28;20025;-64
2021/05/17 02:43:08;;;;;;;0.63;0.47;;;17.90;61.70;;;;;;5052696;28;20167;-65
2021/05/17 02:45:35;;;;;;;0.68;0.47;;;17.90;61.80;;;;;;5052975;28;20107;-65
2021/05/17 02:48:05;;;;;;;3.03;0.68;;;17.90;61.80;;;;;;5052685;28;20017;-65
2021/05/17 02:50:40;;;;;;;0.35;0.32;;;17.90;61.80;;;;;;5051442;28;20122;-66
2021/05/17 02:53:33;;;;;;;0.85;0.30;;;17.60;61.60;;;;;;5052713;28;20032;-65
2021/05/17 02:56:08;;;;;;;1.27;0.57;;;17.90;61.80;;;;;;5052608;28;20025;-66
2021/05/17 02:58:37;;;;;;;1.02;0.50;;;17.90;61.80;;;;;;5052468;28;20029;-66
2021/05/17 03:01:14;;;;;;;2.60;0.68;;;17.90;61.80;;;;;;5052804;28;20067;-66
2021/05/17 03:03:47;;;;;;;1.17;0.60;;;17.90;61.80;;;;;;5051386;28;20067;-66
2021/05/17 03:06:27;;;;;;;0.65;0.40;;;17.70;61.70;;;;;;5051248;28;20036;-65
2021/05/17 03:09:05;;;;;;;0.95;0.35;;;17.70;62.40;;;;;;5052421;28;20487;-65
2021/05/17 03:11:34;;;;;;;0.85;0.40;;;17.60;61.70;;;;;;5052788;28;20092;-66
2021/05/17 03:14:01;;;;;;;2.58;0.75;;;17.90;61.90;;;;;;5052461;28;20029;-66
2021/05/17 03:16:28;;;;;;;0.60;0.38;;;17.90;61.90;;;;;;5051226;28;20111;-66
2021/05/17 03:18:55;;;;;;;0.93;0.50;;;17.90;61.90;;;;;;5051206;28;20163;-65
2021/05/17 03:21:23;;;;;;;0.82;0.40;;;17.90;61.90;;;;;;5052352;28;20044;-65
2021/05/17 03:23:51;;;;;;;1.15;0.40;;;17.90;61.90;;;;;;5052609;28;20036;-66
2021/05/17 03:26:19;;;;;;;1.95;0.47;;;17.80;61.80;;;;;;5052318;28;20017;-65
2021/05/17 03:28:44;;;;;;;2.15;0.47;;;17.90;61.90;;;;;;5052200;28;20033;-65
2021/05/17 03:31:10;;;;;;;1.20;0.32;;;17.90;61.90;;;;;;5052542;28;20071;-65
2021/05/17 03:33:36;;;;;;;0.93;0.52;;;17.80;61.90;;;;;;5053911;28;20090;-65
2021/05/17 03:36:01;;;;;;;1.23;0.40;;;17.80;61.90;;;;;;5056191;28;20031;-66
2021/05/17 03:38:27;;;;;;;0.80;0.30;;;17.80;61.90;;;;;;5056104;28;20025;-65
2021/05/17 03:40:52;;;;;;;0.32;0.32;;;17.70;61.90;;;;;;5056052;28;20037;-66
2021/05/17 03:43:18;;;;;;;0.93;0.50;;;18.30;62.20;;;;;;5056304;28;20044;-66
2021/05/17 03:45:44;;;;;;;1.00;0.50;;;17.80;61.90;;;;;;5055896;28;20029;-66
2021/05/17 03:48:09;;;;;;;1.35;0.30;;;17.80;61.90;;;;;;5055784;28;20029;-66
2021/05/17 03:50:35;;;;;;;0.77;0.50;;;17.80;61.90;;;;;;5054676;28;20025;-65
2021/05/17 03:53:01;;;;;;;1.27;0.40;;;17.70;62.00;;;;;;5056075;28;20474;-66
2021/05/17 03:55:26;;;;;;;1.40;0.45;;;17.70;62.00;;;;;;5055823;28;20033;-66
2021/05/17 03:57:57;;;;;;;1.42;0.40;;;17.80;62.00;;;;;;5055696;28;20017;-66
2021/05/17 04:00:23;;;;;;;0.40;0.32;;;17.80;62.00;;;;;;5056033;28;20028;-66
2021/05/17 04:02:49;;;;;;;1.17;0.50;;;17.80;62.10;;;;;;5055801;28;20082;-64
2021/05/17 04:15:40;;;;;;;1.02;0.50;;;17.70;62.00;;;;;;5055637;28;20055;-66
2021/05/17 04:18:06;;;;;;;0.70;0.50;;;17.70;62.10;;;;;;5054113;28;20017;-66
2021/05/17 04:20:31;;;;;;;1.30;0.40;;;17.70;62.10;;;;;;5055305;28;20057;-65
2021/05/17 04:22:57;;;;;;;0.80;0.32;;;17.70;62.10;;;;;;5054039;28;20029;-65
2021/05/17 04:25:23;;;;;;;1.23;0.73;;;17.70;62.10;;;;;;5055191;28;20056;-64
2021/05/17 04:27:49;;;;;;;0.57;0.50;;;17.60;62.10;;;;;;5053824;28;20466;-66
2021/05/17 04:30:15;;;;;;;1.25;0.57;;;17.70;62.20;;;;;;5055183;28;20105;-66
2021/05/17 04:32:41;;;;;;;1.00;0.50;;;17.70;62.20;;;;;;5055111;28;20495;-66
2021/05/17 04:35:07;;;;;;;0.70;0.50;;;17.70;62.20;;;;;;5055149;28;20142;-66
2021/05/17 04:37:33;;;;;;;0.60;0.40;;;17.70;62.20;;;;;;5055372;28;20097;-66
2021/05/17 04:39:58;;;;;;;0.38;0.38;;;17.70;62.20;;;;;;5055304;28;20017;-66
2021/05/17 04:42:24;;;;;;;0.93;0.47;;;17.70;62.20;;;;;;5054987;28;20035;-65
2021/05/17 04:44:50;;;;;;;0.93;0.40;;;17.60;62.20;;;;;;5053869;28;20017;-65
2021/05/17 04:47:15;;;;;;;0.82;0.40;;;17.70;62.20;;;;;;5054973;28;20443;-66
2021/05/17 04:49:41;;;;;;;0.60;0.50;;;17.70;62.20;;;;;;5055038;28;20035;-65
2021/05/17 04:52:06;;;;;;;1.30;0.70;;;17.70;62.30;;;;;;5054643;28;20017;-65
2021/05/17 04:54:32;;;;;;;0.70;0.52;;;17.60;62.20;;;;;;5054952;28;20222;-65
2021/05/17 04:56:58;;;;;;;1.35;0.43;;;17.70;62.30;;;;;;5054632;28;20017;-65
2021/05/17 04:59:23;;;;;;;0.73;0.50;;;17.70;62.30;;;;;;5054634;28;20069;-66
2021/05/17 05:01:49;;;;;;;2.80;0.60;;;18.00;87.50;;;;;;5054418;28;20036;-66
2021/05/17 05:04:15;;;;;;;1.30;0.40;;;17.30;62.10;;;;;;5054405;28;20163;-66
2021/05/17 05:06:40;;;;;;;1.60;0.50;;;17.70;62.30;;;;;;5054729;28;20017;-66
2021/05/17 05:09:06;;;;;;;1.77;0.50;;;17.70;62.40;;;;;;5054343;28;20107;-66
2021/05/17 05:11:32;;;;;;;0.70;0.40;;;17.70;62.40;;;;;;5054670;28;20032;-64
2021/05/17 05:13:57;;;;;;;1.13;0.60;;;17.40;62.10;;;;;;5054586;28;20028;-64
2021/05/17 05:16:23;;;;;;;1.27;0.40;;;17.60;62.40;;;;;;5054239;28;20029;-64
2021/05/17 05:18:48;;;;;;;1.48;0.52;;;17.60;62.40;;;;;;5052951;28;20048;-65
2021/05/17 05:21:14;;;;;;;0.65;0.47;;;17.40;62.20;;;;;;5054142;28;20387;-65
2021/05/17 05:23:40;;;;;;;1.00;0.57;;;17.60;62.30;;;;;;5054350;28;20033;-64
2021/05/17 05:31:12;;;;;;;0.43;0.40;;;17.60;62.40;;;;;;5054058;28;20387;-64
2021/05/17 05:33:38;;;;;;;1.55;0.60;;;17.60;62.40;;;;;;5053994;28;20019;-64
2021/05/17 05:36:04;;;;;;;1.23;0.60;;;17.50;62.40;;;;;;5053882;28;20108;-64
2021/05/17 05:38:29;;;;;;;1.30;0.40;;;17.60;62.40;;;;;;5053893;28;20040;-64
2021/05/17 05:40:55;;;;;;;1.13;0.43;;;17.60;62.50;;;;;;5054051;28;20021;-64
2021/05/17 05:43:20;;;;;;;1.85;0.55;;;17.60;62.50;;;;;;5054038;28;20031;-64
2021/05/17 05:45:46;;;;;;;0.52;0.35;;;17.60;62.50;;;;;;5052519;28;20383;-64
2021/05/17 05:48:13;;;;;;;1.98;0.57;;;17.50;62.40;;;;;;5052385;28;20533;-65
2021/05/17 05:50:39;;;;;;;2.20;0.70;;;18.00;62.70;;;;;;5053602;28;20422;-66
2021/05/17 05:53:06;;;;;;;2.03;0.50;;;17.60;62.60;;;;;;5053528;28;20028;-67
2021/05/17 05:55:32;;;;;;;1.58;0.60;;;17.60;62.60;;;;;;5053352;28;20021;-66
2021/05/17 05:57:58;;;;;;;4.22;0.60;;;17.60;62.50;;;;;;5053425;28;20027;-66
2021/05/17 06:00:29;;;;;;;2.78;0.40;;;17.50;86.60;;;;;;5052191;28;20120;-67
2021/05/17 06:02:56;;;;;;;2.75;0.60;;;17.50;62.60;;;;;;5053441;28;20036;-66
2021/05/17 06:05:22;;;;;;;3.13;0.50;;;17.50;62.70;;;;;;5053355;28;20059;-66
2021/05/17 06:07:47;;;;;;;0.63;0.28;;;17.60;62.80;;;;;;5053534;28;20432;-65
2021/05/17 06:10:14;;;;;;;0.80;0.60;;;17.60;62.80;;;;;;5053182;28;20483;-65
2021/05/17 06:12:40;;;;;;;1.85;0.55;;;17.60;62.80;;;;;;5035381;28;20438;-65
2021/05/17 06:15:09;;;;;;;3.83;0.80;;;17.60;62.80;;;;;;5053272;28;20021;-65
2021/05/17 06:17:35;;;;;;;1.80;0.70;;;17.60;62.80;;;;;;5052991;28;20016;-65
2021/05/17 06:20:02;;;;;;;1.02;0.55;;;17.50;62.80;;;;;;5053042;28;20032;-66
2021/05/17 06:22:29;;;;;;;2.15;0.60;;;17.60;62.80;;;;;;5053216;28;20036;-66
2021/05/17 06:24:57;;;;;;;1.65;0.55;;;17.50;62.80;;;;;;5051678;28;20029;-64
2021/05/17 06:27:24;;;;;;;1.85;0.68;;;17.50;62.80;;;;;;5053246;28;20033;-63
2021/05/17 06:29:55;;;;;;;1.75;0.68;;;17.50;62.70;;;;;;5052825;28;20025;-63
2021/05/17 06:32:22;;;;;;;3.85;0.98;;;17.60;62.70;;;;;;5052943;28;20024;-64
2021/05/17 06:34:49;;;;;;;3.35;0.68;;;17.60;62.80;;;;;;5052821;28;20021;-64
2021/05/17 06:37:15;;;;;;;1.52;0.77;;;17.60;62.80;;;;;;5053122;28;20017;-63
2021/05/17 06:39:40;;;;;;;1.50;0.60;;;17.50;62.80;;;;;;5052734;28;20031;-64
2021/05/17 06:42:07;;;;;;;2.03;0.68;;;17.40;62.70;;;;;;5052755;28;20482;-64
2021/05/17 06:44:33;;;;;;;2.10;0.50;;;17.50;62.80;;;;;;5053001;28;20115;-63
2021/05/17 06:46:59;;;;;;;0.95;0.43;;;17.50;62.80;;;;;;5052523;28;20467;-64
2021/05/17 06:49:27;;;;;;;4.55;0.70;;;17.50;62.90;;;;;;5052556;28;20560;-63
2021/05/17 06:51:53;;;;;;;2.40;0.60;;;17.30;62.80;;;;;;5052502;28;20017;-62
2021/05/17 06:54:23;;;;;;;3.33;0.63;;;17.50;62.90;;;;;;5051578;28;20031;-64
2021/05/17 06:59:18;;;;;;;1.38;0.43;;;17.50;62.90;;;;;;5052858;28;20044;-63
2021/05/17 07:01:45;;;;;;;0.93;0.50;;;17.50;62.90;;;;;;5052420;28;20025;-60
2021/05/17 07:04:15;;;;;;;1.83;0.88;;;17.50;62.90;;;;;;5052324;28;20049;-60
2021/05/17 07:06:55;;;;;;;1.63;0.50;;;17.50;63.00;;;;;;5052516;28;20086;-62
2021/05/17 07:12:15;;;;;;;4.15;0.88;;;17.70;62.90;;;;;;5063551;28;20010;-62
2021/05/17 07:14:41;;;;;;;4.05;1.00;;;17.60;62.90;;;;;;5056807;28;20017;-62
2021/05/17 07:17:07;;;;;;;1.92;0.85;;;17.60;63.10;;;;;;5055607;28;20029;-62
2021/05/17 07:19:33;;;;;;;3.78;1.00;;;17.60;63.40;;;;;;5056411;28;20025;-62
2021/05/17 07:24:43;;;;;;;2.08;0.40;;;17.40;63.50;;;;;;5056660;28;20048;-62
2021/05/17 07:27:09;;;;;;;2.33;0.75;;;17.50;63.60;;;;;;5056320;28;20025;-62
2021/05/17 07:29:37;;;;;;;1.95;0.82;;;17.60;63.60;;;;;;5056366;28;20033;-62
2021/05/17 07:32:08;;;;;;;2.08;0.70;;;17.60;63.50;;;;;;5056159;28;20021;-62
2021/05/17 07:34:36;;;;;;;3.55;0.80;;;17.60;63.50;;;;;;5056427;28;20090;-62
2021/05/17 07:37:04;;;;;;;1.45;0.65;;;17.70;63.70;;;;;;5056049;28;20074;-62
2021/05/17 07:39:30;;;;;;;4.35;1.15;;;17.60;63.60;;;;;;5056057;28;20059;-62
2021/05/17 07:41:55;;;;;;;2.17;0.90;;;17.50;63.50;;;;;;5056001;28;20048;-62
2021/05/17 07:44:21;;;;;;;2.33;0.80;;;17.30;63.40;;;;;;5056308;28;20028;-62
2021/05/17 07:46:47;;;;;;;1.13;0.90;;;17.30;63.40;;;;;;5056016;28;20021;-62
2021/05/17 07:49:15;;;;;;;3.55;0.73;;;17.40;63.50;;;;;;5054890;28;20116;-63
2021/05/17 07:51:43;;;;;;;3.13;0.82;;;17.50;63.50;;;;;;5056176;28;20048;-61
2021/05/17 07:54:10;;;;;;;3.88;1.08;;;17.30;63.30;;;;;;5056076;28;20035;-62
2021/05/17 07:56:36;;;;;;;0.55;0.55;;;17.30;63.20;;;;;;5056038;28;20071;-61
2021/05/17 07:59:02;;;;;;;3.40;0.80;;;17.50;63.50;;;;;;5055740;28;20021;-62
2021/05/17 08:01:28;;;;;;;2.83;0.80;;;17.60;63.60;;;;;;5055842;28;20032;-62
2021/05/17 08:03:53;;;;;;;3.05;0.80;;;17.40;63.60;;;;;;5055463;28;20101;-65
2021/05/17 08:06:19;;;;;;;2.15;0.60;;;17.60;63.70;;;;;;5055650;28;20029;-63
2021/05/17 08:08:45;;;;;;;2.85;1.05;;;17.70;63.70;;;;;;5055834;28;20032;-63
2021/05/17 08:11:10;;;;;;;2.70;0.85;;;17.40;63.40;;;;;;5054450;28;20472;-63
2021/05/17 08:13:38;;;;;;;2.45;0.70;;;17.60;63.70;;;;;;5055533;28;20021;-62
2021/05/17 08:16:05;;;;;;;0.90;0.60;;;17.60;63.60;;;;;;5055338;28;20021;-63
2021/05/17 08:18:32;;;;;;;2.17;0.50;;;17.70;63.70;;;;;;5055666;28;20365;-63
2021/05/17 08:20:57;;;;;;;1.30;0.70;;;17.70;63.80;;;;;;5055412;28;20394;-62
2021/05/17 08:23:23;;;;;;;0.82;0.52;;;17.40;63.40;;;;;;5055385;28;20103;-62
2021/05/17 08:25:49;;;;;;;1.98;0.70;;;17.70;63.50;;;;;;5054045;28;20032;-63
2021/05/17 08:28:14;;;;;;;1.15;0.50;;;17.70;63.40;;;;;;5055234;28;20104;-63
2021/05/17 08:30:42;;;;;;;1.85;0.50;;;17.40;63.50;;;;;;5055180;28;20104;-63
2021/05/17 08:33:10;;;;;;;1.85;0.57;;;17.80;63.60;;;;;;5055259;28;20032;-63
2021/05/17 08:35:36;;;;;;;3.00;0.90;;;17.70;63.50;;;;;;5055097;28;20025;-64
2021/05/17 08:38:02;;;;;;;3.75;0.70;;;17.70;63.60;;;;;;5055082;28;20466;-63
2021/05/17 08:40:29;;;;;;;1.88;0.80;;;17.70;63.90;;;;;;5054994;28;20051;-62
2021/05/17 08:42:55;;;;;;;1.65;0.63;;;17.80;63.90;;;;;;5055112;28;20364;-63
2021/05/17 08:45:22;;;;;;;1.42;0.60;;;17.80;63.80;;;;;;5055108;28;20017;-63
2021/05/17 08:47:47;;;;;;;1.55;0.68;;;17.50;63.50;;;;;;5054844;28;20040;-65
2021/05/17 08:50:13;;;;;;;0.88;0.57;;;17.80;63.60;;;;;;5054928;28;20417;-64
2021/05/17 08:52:39;;;;;;;2.42;0.88;;;17.70;63.40;;;;;;5054723;28;20025;-64
2021/05/17 08:55:07;;;;;;;2.70;0.85;;;17.80;63.50;;;;;;5054684;28;20025;-65
2021/05/17 08:57:33;;;;;;;1.70;0.60;;;17.80;63.40;;;;;;5054675;28;20411;-65
2021/05/17 08:59:59;;;;;;;1.75;0.70;;;17.80;63.40;;;;;;5054837;28;20013;-61
2021/05/17 09:02:27;;;;;;;0.80;0.50;;;17.80;63.40;;;;;;5054362;28;20029;-61
2021/05/17 09:05:19;;;;;;;2.22;0.65;;;17.90;63.40;;;;;;5054402;28;20504;-60
2021/05/17 09:07:47;;;;;;;1.48;0.90;;;18.00;63.40;;;;;;5053473;28;20466;-61
2021/05/17 09:10:17;;;;;;;3.65;0.70;;;18.00;63.40;;;;;;5054611;28;20436;-61
2021/05/17 09:13:13;;;;;;;3.63;0.88;;;18.00;63.50;;;;;;5054606;28;20472;-61
2021/05/17 09:15:47;;;;;;;4.40;0.80;;;18.00;63.30;;;;;;5052996;28;20060;-61
2021/05/17 09:18:18;;;;;;;2.75;0.80;;;18.00;63.30;;;;;;5054275;28;20032;-60
2021/05/17 09:20:46;;;;;;;2.88;0.70;;;17.90;63.40;;;;;;5054202;28;20029;-60
2021/05/17 09:23:30;;;;;;;4.00;0.80;;;18.00;63.30;;;;;;5052986;28;20082;-60
2021/05/17 09:26:07;;;;;;;2.85;0.65;;;18.00;88.10;;;;;;5054145;28;20103;-60
2021/05/17 09:28:36;;;;;;;1.38;0.70;;;17.70;63.20;;;;;;5054137;28;20040;-61
2021/05/17 09:31:13;;;;;;;2.40;0.68;;;18.00;63.50;;;;;;5053465;28;20025;-61
2021/05/17 09:34:04;;;;;;;1.23;0.52;;;18.00;63.50;;;;;;5054297;28;20028;-61
2021/05/17 09:36:32;;;;;;;3.33;0.68;;;18.00;63.70;;;;;;5054005;28;20100;-61
2021/05/17 09:39:08;;;;;;;6.68;0.68;;;18.00;63.70;;;;;;5054148;28;20170;-61
2021/05/17 09:41:55;;;;;;;2.00;0.63;;;18.10;63.90;;;;;;5053731;28;20033;-61
2021/05/17 09:44:28;;;;;;;12.82;0.95;;;18.00;64.00;;;;;;5054012;28;20476;-61
2021/05/17 09:47:08;;;;;;;5.20;0.90;;;18.00;64.30;;;;;;5053734;28;20572;-61
2021/05/17 09:49:45;;;;;;;5.60;0.75;;;18.10;65.10;;;;;;5053739;28;20040;-63
2021/05/17 09:52:15;;;;;;;4.63;0.70;;;18.10;66.00;;;;;;5053606;28;20017;-61
2021/05/17 09:55:00;;;;;;;5.70;0.55;;;18.10;66.40;;;;;;5053526;28;20491;-63
2021/05/17 09:57:36;;;;;;;0.60;0.60;;;18.10;67.10;;;;;;5052206;28;20024;-61
2021/05/17 10:00:18;;;;;;;4.40;0.85;;;18.10;91.30;;;;;;5053658;28;20041;-60
2021/05/17 10:02:46;;;;;;;3.38;0.80;;;18.10;68.50;;;;;;5053299;28;20029;-60
2021/05/17 10:05:21;;;;;;;1.92;0.82;;;18.10;69.10;;;;;;5053167;28;20044;-61
2021/05/17 10:07:57;;;;;;;2.28;0.73;;;18.10;68.40;;;;;;5053618;28;20025;-61
2021/05/17 10:10:25;;;;;;;2.40;1.20;;;18.10;68.20;;;;;;5053488;28;20040;-60
2021/05/17 10:12:51;;;;;;;7.32;1.75;;;18.40;68.90;;;;;;5053183;28;20024;-61
2021/05/17 10:15:17;;;;;;;1.58;0.60;;;18.10;68.80;;;;;;5052038;28;20016;-61
2021/05/17 10:17:44;;;;;;;2.65;0.82;;;18.10;69.20;;;;;;5053374;28;20033;-61
2021/05/17 10:20:15;;;;;;;3.80;0.77;;;18.10;69.80;;;;;;5053145;28;20028;-61
2021/05/17 10:22:41;;;;;;;2.50;0.60;;;18.00;69.20;;;;;;5053395;28;20086;-61
2021/05/17 10:25:08;;;;;;;1.60;0.75;;;17.80;69.60;;;;;;5053213;28;20013;-63
2021/05/17 10:27:40;;;;;;;1.23;0.70;;;18.00;70.00;;;;;;5053308;28;20040;-63
2021/05/17 10:30:09;;;;;;;1.27;0.70;;;18.10;70.60;;;;;;5053078;28;20475;-63
2021/05/17 10:32:45;;;;;;;1.33;0.65;;;18.00;70.60;;;;;;5053396;28;20017;-63
2021/05/17 10:35:36;;;;;;;5.85;1.15;;;18.00;70.30;;;;;;5053225;28;20055;-63
2021/05/17 10:38:14;;;;;;;1.75;0.73;;;18.00;70.50;;;;;;5041878;28;20052;-63
2021/05/17 10:40:42;;;;;;;1.58;0.98;;;18.00;70.60;;;;;;5052930;28;20432;-64
2021/05/17 10:48:20;;;;;;;2.15;0.50;;;18.00;71.00;;;;;;5052936;28;20028;-64
2021/05/17 10:51:10;;;;;;;2.28;0.82;;;17.90;71.10;;;;;;5052695;28;20071;-65
2021/05/17 10:53:44;;;;;;;2.50;0.73;;;18.00;71.40;;;;;;5039665;28;20033;-64
2021/05/17 10:56:11;;;;;;;2.25;0.73;;;17.90;71.70;;;;;;5052633;28;20033;-64
2021/05/17 11:01:52;;;;;;;0.80;0.80;;;17.90;72.00;;;;;;5052414;28;20407;-64
2021/05/17 11:04:35;;;;;;;1.48;0.47;;;18.00;72.50;;;;;;5052342;28;20566;-64
2021/05/17 11:07:10;;;;;;;1.60;0.85;;;17.90;72.60;;;;;;5052498;28;20059;-66
2021/05/17 11:09:59;;;;;;;2.75;0.73;;;17.90;72.90;;;;;;5052431;28;20488;-64
2021/05/17 11:12:24;;;;;;;1.23;0.60;;;18.20;71.90;;;;;;5052498;28;20078;-68
2021/05/17 11:15:20;;;;;;;1.02;0.60;;;18.50;72.30;;;;;;5052348;28;20025;-68
2021/05/17 11:18:06;;;;;;;1.17;0.55;;;18.00;72.10;;;;;;4998914;28;20043;-68
2021/05/17 11:20:40;;;;;;;1.02;0.60;;;18.10;71.90;;;;;;5052510;28;20022;-66
2021/05/17 11:23:13;;;;;;;1.13;0.65;;;18.10;71.70;;;;;;5052660;28;20033;-69
2021/05/17 11:31:20;;;;;;;2.13;0.60;;;18.00;72.60;;;;;;5052669;28;20138;-68
2021/05/17 11:34:04;;;;;;;0.68;0.52;;;18.30;72.60;;;;;;5052521;28;20025;-69
2021/05/17 11:36:32;;;;;;;2.60;0.52;;;18.00;72.10;;;;;;5052706;28;20064;-69
2021/05/17 11:39:18;;;;;;;0.80;0.80;;;18.30;72.20;;;;;;5051314;28;20091;-68
2021/05/17 11:41:57;;;;;;;1.42;0.70;;;18.10;72.00;;;;;;5052659;28;20025;-68
2021/05/17 11:45:10;;;;;;;1.25;0.68;;;18.40;72.80;;;;;;5052363;28;20483;-69
2021/05/17 11:47:27;;;;;;;1.30;0.80;;;18.40;73.00;;;;;;5051811;28;20033;-68
2021/05/17 11:49:54;;;;;;;0.77;0.50;;;18.40;73.00;;;;;;5052049;28;20053;-69
2021/05/17 11:52:23;;;;;;;1.63;0.60;;;18.50;72.70;;;;;;5052170;28;20045;-69
2021/05/17 11:54:56;;;;;;;3.28;0.90;;;18.40;72.90;;;;;;5054117;28;20029;-67
2021/05/17 11:57:27;;;;;;;0.80;0.63;;;18.50;73.10;;;;;;5055943;28;20088;-66
2021/05/17 11:59:53;;;;;;;0.80;0.50;;;18.40;72.90;;;;;;5055788;28;20055;-67
2021/05/17 12:02:19;;;;;;;1.27;0.60;;;18.50;72.70;;;;;;5055800;28;20021;-66
2021/05/17 12:04:46;;;;;;;2.05;0.60;;;18.60;72.60;;;;;;5055567;28;20135;-67
2021/05/17 12:07:17;;;;;;;2.00;0.80;;;18.70;72.60;;;;;;5055853;28;20110;-67
2021/05/17 12:09:44;;;;;;;1.08;0.63;;;19.30;72.70;;;;;;5055705;28;20029;-68
2021/05/17 12:12:14;;;;;;;0.98;0.55;;;18.70;72.70;;;;;;5055973;28;20029;-67
2021/05/17 12:14:42;;;;;;;0.90;0.60;;;18.70;72.40;;;;;;5055842;28;20055;-66
2021/05/17 12:17:09;;;;;;;0.80;0.47;;;18.70;72.20;;;;;;5055515;28;20454;-66
2021/05/17 12:19:36;;;;;;;0.90;0.68;;;18.70;72.10;;;;;;5055806;28;20085;-66
2021/05/17 12:22:14;;;;;;;0.93;0.50;;;18.70;72.70;;;;;;5055474;28;20025;-67
2021/05/17 12:24:40;;;;;;;0.60;0.50;;;18.80;72.50;;;;;;5055502;28;20036;-66
2021/05/17 12:27:10;;;;;;;0.63;0.60;;;17.90;71.70;;;;;;5055425;28;20021;-66
2021/05/17 12:29:58;;;;;;;0.40;0.40;;;18.80;72.20;;;;;;5055517;28;20376;-67
2021/05/17 12:32:32;;;;;;;1.02;0.50;;;18.90;72.90;;;;;;5055546;28;20025;-67
2021/05/17 12:35:00;;;;;;;1.65;0.70;;;18.90;72.20;;;;;;5055210;28;20059;-67
2021/05/17 12:37:32;;;;;;;0.68;0.52;;;18.80;71.90;;;;;;5053866;28;20082;-67
2021/05/17 12:40:24;;;;;;;0.88;0.73;;;18.70;72.40;;;;;;5055178;28;20055;-67
2021/05/17 12:43:12;;;;;;;0.90;0.60;;;19.00;72.60;;;;;;5055397;28;20102;-69
2021/05/17 12:45:39;;;;;;;3.00;0.60;;;19.00;72.90;;;;;;5053723;28;20025;-69
2021/05/17 12:48:22;;;;;;;1.05;0.70;;;19.00;72.90;;;;;;5055397;28;20115;-69
2021/05/17 12:50:52;;;;;;;1.98;0.60;;;19.10;73.00;;;;;;5054942;28;20032;-68
2021/05/17 12:53:19;;;;;;;1.20;0.50;;;19.10;72.70;;;;;;5054881;28;20108;-67
2021/05/17 12:55:48;;;;;;;1.48;0.60;;;18.80;72.20;;;;;;5054896;28;20346;-69
2021/05/17 12:58:25;;;;;;;1.52;0.70;;;19.00;72.30;;;;;;5054844;28;20025;-68
2021/05/17 13:00:53;;;;;;;1.88;0.65;;;18.80;72.40;;;;;;5054488;28;20032;-68
2021/05/17 13:03:25;;;;;;;1.95;0.70;;;19.20;72.30;;;;;;5054575;28;20041;-67
2021/05/17 13:05:54;;;;;;;1.48;0.50;;;19.20;72.50;;;;;;5053931;28;20036;-66
2021/05/17 13:08:25;;;;;;;1.45;0.70;;;19.20;72.50;;;;;;5054371;28;20033;-68
2021/05/17 13:11:16;;;;;;;0.68;0.40;;;19.00;72.70;;;;;;5053526;28;20029;-68
2021/05/17 13:14:02;;;;;;;0.85;0.50;;;19.20;72.70;;;;;;5043884;28;20048;-68
2021/05/17 13:16:40;;;;;;;1.25;0.70;;;19.20;73.10;;;;;;5054343;28;20053;-67
2021/05/17 13:25:24;;;;;;;2.97;0.70;;;19.30;72.60;;;;;;5054496;28;20040;-67
2021/05/17 13:31:02;;;;;;;1.45;0.73;;;19.40;72.20;;;;;;5054189;28;20090;-68
2021/05/17 13:33:48;;;;;;;2.40;0.68;;;19.40;72.00;;;;;;5052672;28;20017;-66
2021/05/17 13:36:16;;;;;;;1.08;0.70;;;19.40;71.80;;;;;;5054275;28;20029;-67
2021/05/17 13:38:54;;;;;;;0.73;0.63;;;19.40;71.80;;;;;;5054095;28;20043;-67
2021/05/17 13:41:23;;;;;;;1.42;0.60;;;19.50;71.80;;;;;;5053861;28;20525;-67
2021/05/17 13:43:50;;;;;;;1.75;0.50;;;19.50;71.80;;;;;;5053927;28;20025;-67
2021/05/17 13:46:17;;;;;;;0.75;0.50;;;19.30;71.60;;;;;;5054397;28;20395;-68